首页
METAR-TAF:

METAR-TAF

机场 :

海參崴, 俄罗斯

海參崴國際機場

纬度: 43-07N, 经度: 131-56E, 海拔: 184米

当前天气观测

该预报发布于21分钟前的22:00 UTC
风速4节,风向东北
温度 4°C
湿度 65%
气压 1006 hPa
能見度: 9000

METAR: UHWW 252200Z 04002MPS 9000 NSC 04/M02 Q1006 R25L/0///70 NOSIG RMK QFE754

时间: 08:21 (22:21 UTC)

预报

该预报发布于2小时和21分钟前的20:00 UTC
预报有效从25日的 21点(UTC)到 26日的 21点(UTC)
风速6节,风向西南
能見度: 4000
散云层高于2000英尺
轻雾, 烟
成为
从 26日的 00点(UTC)到 26日的 01点(UTC)
能见度10公里或以上
多云层高于2000英尺
成为
从 26日的 09点(UTC)到 26日的 10点(UTC)
风速6节,风向北转西北
多云层高于1200英尺, 积雨云.

TAF: UHWW 252000Z 2521/2621 23003MPS 4000 BR FU SCT020 BECMG 2600/2601 9999 NSW BKN020 BECMG 2609/2610 33003MPS BKN012CB

超过4000个机场的气象观测和天气预报(METAR&TAF报告)。

可查询的气象台以黄色和红色小点在地图上表示。

将鼠标移到小点上方,可查看气象台名称。

然后点击查看天气观测和预报。

如需切换地图:点击带黑十字的绿色按钮放大地图;点击带横线的绿色按钮缩小地图;或者点击绿色箭头查看邻近地区的地图。


METAR-TAF: